Nordic Stockholm — 2DKI2 — position and weather

sailwx.info

Track history (hours):
 
Tides and Currents Weather Stations Pressure Air Temp Water Temp Dewpoint Dewpoint Depression Visibility Wind Speed Wind Dir Waves Ship Positions

Nordic Stockholm

Last reported at 2016-Jan-08 12:33 UTC. Time now 2016-Feb-09 13:52 UTC.
Position N 35°58' W 005°33'.
Warning: this ship's position is 32 days out of date.

Length 180 m; draft 10.8 m.

Type: Cargo ship. MMSI: 235079725.

Date/timePositionNaut miles runAvg speedWind from/ knotsBaromVisibWave heightAir tempDewpointWater temp
2016-Jan-08 12:33N 35°58' W 005°33'10 9.7
2016-Jan-08 11:33N 36°01' W 005°21'10 9.5
2016-Jan-08 10:33N 36°03' W 005°10'26211.8
2016-Jan-07 12:22N 36°46' E 000°11'  
2016-Jan-05 05:30N 36°54' E 012°41'1212.6
2016-Jan-05 04:33N 36°49' E 012°54'1211.9
2016-Jan-05 03:33N 36°43' E 013°07'1212.2
2016-Jan-05 02:33N 36°38' E 013°21'1211.7
2016-Jan-05 01:33N 36°33' E 013°34'1212.0
2016-Jan-05 00:33N 36°29' E 013°48'1212.1
2016-Jan-04 23:33N 36°27' E 014°03'1212.3
2016-Jan-04 22:33N 36°27' E 014°19'1211.9
2016-Jan-04 21:33N 36°27' E 014°33'1312.4
2016-Jan-04 20:32N 36°26' E 014°49'1212.6
2016-Jan-04 19:33N 36°26' E 015°05'  
Track history (hours):
 
Tides and Currents Weather Stations Pressure Air Temp Water Temp Dewpoint Dewpoint Depression Visibility Wind Speed Wind Dir Waves Ship Positions

Nordic Stockholm

Last reported at 2016-Jan-08 12:33 UTC. Time now 2016-Feb-09 13:52 UTC.
Position N 35°58' W 005°33'.
Warning: this ship's position is 32 days out of date.

Length 180 m; draft 10.8 m.

Type: Cargo ship. MMSI: 235079725.

Date/timePositionNaut miles runAvg speedWind from/ knotsBaromVisibWave heightAir tempDewpointWater temp
2016-Jan-08 12:33N 35°58' W 005°33'10 9.7
2016-Jan-08 11:33N 36°01' W 005°21'10 9.5
2016-Jan-08 10:33N 36°03' W 005°10'26211.8
2016-Jan-07 12:22N 36°46' E 000°11'  
2016-Jan-05 05:30N 36°54' E 012°41'1212.6
2016-Jan-05 04:33N 36°49' E 012°54'1211.9
2016-Jan-05 03:33N 36°43' E 013°07'1212.2
2016-Jan-05 02:33N 36°38' E 013°21'1211.7
2016-Jan-05 01:33N 36°33' E 013°34'1212.0
2016-Jan-05 00:33N 36°29' E 013°48'1212.1
2016-Jan-04 23:33N 36°27' E 014°03'1212.3
2016-Jan-04 22:33N 36°27' E 014°19'1211.9
2016-Jan-04 21:33N 36°27' E 014°33'1312.4
2016-Jan-04 20:32N 36°26' E 014°49'1212.6
2016-Jan-04 19:33N 36°26' E 015°05'  

Dump ship's entire track history